Milton, North Carolina
Current Conditions -  °F | °C
As of 7:53 AM on Thursday 18 Dec 2014 (Local Time) from KDAN Reporting Station
Clear Clear  
Wind Chill: 32°   Ceiling: Unl
Heat Index: 32°   Visibility: 10mi
Dew Point: 25°   Wind: 3mph
Humidity: 75%   Direction: 240°WSW
Pressure: 30.18"   Gusts: NA
Location:  36.54°N, 79.21°W
Report Text: KDAN 181253Z AUTO 24003KT 10SM CLR 00/M04 A3018 RMK AO2 SLP217 T00001039
Loading
Personal Weather Stations






























Interactive Weather Map New forecast layout! Learn more

10-Day Weather Forecast

Advertisements
Track Severe Weather on mobile